Relevés horaires St-Hubert (Belgique)


Relevés horaires à St-Hubert - Mercredi 02 Juin 2021
Heure UTC1 Température [°C] Vent [km/h] Hum. [%] Pres.4 [hPa] Visi. [Km] Nébu. [octa] Préc.5 [mm] Cond.
2m. Res. Ros. Dir.2 Vit. Moy. Raf.3
23:00 15.3 15.3 11.6 SSE 3.7 3.7 7.4 79 1018.3(1.7/3h) 45 0/8 -- --
22:00 15.4 15.4 11.4 SSE 3.7 5.6 9.3 77 1018(1.6/3h) 45 0/8 -- --
21:00 15.9 15.9 11.4 S 5.6 7.4 14.8 75 1017.4(1.6/3h) 45 0/8 -- --
20:00 16.0 16.0 11.0 SSO 5.6 7.4 13.0 72 1016.4(1.3/3h) 45 0/8 -- --
19:00 17.5 17.5 10.8 S 5.6 7.4 14.8 65 1015.8(1.3/3h) 45 0/8 -- --
18:00 20.9 20.9 13.5 S 5.6 9.3 14.8 63 1014.5(1.0/3h) 40 0/8 0/12h
Ciel clair
17:00 21.6 21.6 14.8 S 7.4 7.4 13.0 65 1013.6(-0.1/3h) 30 0/8 -- --
16:00 21.3 21.3 14.8 S 5.6 9.3 14.8 66 1013.5(0.1/3h) 30 3/8 -- Ciel clair
15:00 22.5 22.5 12.5 S 5.6 7.4 14.8 53 1013.1(0.0/3h) 40 1/8 -- --
14:00 23.3 23.3 10.8 S 7.4 7.4 14.8 45 1013.3(0.3/3h) 35 7/8 -- --
13:00 23.4 23.4 11.5 S 7.4 7.4 14.8 47 1013.2(0.4/3h) 30 1/8 -- --
12:00 23.1 23.1 11.6 NNO 5.6 7.4 13.0 48 1013(0.2/3h) 40 0/8 0/6h
--
11:00 22.3 22.3 11.0 S 3.7 5.6 13.0 49 1013.2(0.4/3h) 30 0/8 -- --
10:00 21.6 21.6 10.9 SSE 3.7 7.4 13.0 51 1013.2(0.3/3h) 30 0/8 -- --
09:00 20.4 20.4 8.9 SSE 5.6 7.4 13.0 48 1013.4(0.4/3h) 35 0/8 -- --
08:00 19.5 19.5 7.7 SE 5.6 7.4 11.1 46 1013.5(0.3/3h) 35 2/8 -- --
07:00 17.6 17.6 6.1 SE 7.4 7.4 13.0 47 1013.8(0.3/3h) 30 0/8 -- --
06:00 16.9 16.9 5.1 SE 7.4 9.3 14.8 46 1013.9(-0.2/3h) 40 7/8 0/12h
--
05:00 14.8 14.7 4.2 SE 7.4 9.3 14.8 49 1014.3(0.1/3h) 45 0/8 -- --
04:00 14.8 14.5 3.7 ESE 9.3 9.3 13.0 47 1014.1(-0.3/3h) 45 0/8 -- --
03:00 14.4 14.3 4.3 ESE 7.4 9.3 14.8 51 1014.6(-0.2/3h) 45 0/8 -- --
02:00 13.1 12.8 4.3 E 7.4 9.3 14.8 55 1014.8(-0.6/3h) 45 0/8 -- --
01:00 14.1 13.6 4.9 ESE 9.3 9.3 13.0 54 1014.6(-0.5/3h) 45 0/8 -- --
00:00 13.8 13.3 5.0 E 9.3 9.3 14.8 55 1014.9(0.1/3h) 45 0/8 0/6h
0/24h
--

1 Coordinated Universal Time. Actuellement il est 13:00 locale et 11:00 UTC.

2 Le vent souffle depuis la direction indiquée vers la direction oposée.

3 Les rafales max. sont disponible 40 min après l'heure du relevé.

4 Pour les stations d'altitude (plus de 600m) le géopotentiel du niveau le plus proche de la pression obligatoire est indiqué.

5 Les stations disposant d'un diffuseur peuvent indiquer "trace". Cela signifie que des précipitations ont touchés le sol mais que la quantité est inférieure à 0.1 mm.

Récapitulatif de la journée
Température [°C] Vent [km/h] Ensoleillement4 [h] Precipitations totale5 [mm] Pression [Hpa]
Min1 Max.2 Moy.3 Max. Min Max.
11.4 23.8 7.8 14.8 0 h 0 min 0 1013.0 1018.3

1 Température minimale relevée entre 18:00 UTC la veille et 18:00 UTC le jour donné.

2 Température maximale relevée entre 06:00 UTC le jour donné et 06:00 UTC le lendemain.

3 Vent moyen de la journée basé sur les relevés horaires.

4 Ensoleillement en heures relevé entre 06:00 UTC la veille et 06:00 UTC le jour donné.

5 Précipitations totales tombées entre 06:00 UTC la jour donné et 06:00 UTC le lendemain.

Graphiques horaires